Time;durP1;ratioP1;P1;durP2;ratioP2;P2;SDS_P1;SDS_P2;PMS_P1;PMS_P2;Temp;Humidity;BMP_temperature;BMP_pressure;BME280_temperature;BME280_humidity;BME280_pressure;Samples;Min_cycle;Max_cycle;Signal;HPM_P1;HPM_P2
2021/08/15 00:01:13;;;;;;;12.65;7.25;;;25.40;57.30;;;;;;5095228;28;20035;-72
2021/08/15 00:03:39;;;;;;;10.10;7.35;;;25.30;57.30;;;;;;5095079;28;20051;-71
2021/08/15 00:06:05;;;;;;;10.95;7.57;;;25.30;57.50;;;;;;5095067;28;20469;-73
2021/08/15 00:08:31;;;;;;;11.45;7.88;;;25.30;57.50;;;;;;5095094;28;20427;-72
2021/08/15 00:10:57;;;;;;;12.10;7.95;;;25.30;57.60;;;;;;5094755;28;20020;-71
2021/08/15 00:13:24;;;;;;;11.90;8.18;;;25.30;57.80;;;;;;5076771;28;20385;-71
2021/08/15 00:15:50;;;;;;;12.35;8.05;;;25.30;57.90;;;;;;5076758;28;20028;-71
2021/08/15 00:18:16;;;;;;;16.48;9.20;;;25.20;57.70;;;;;;5094863;28;20024;-71
2021/08/15 00:20:42;;;;;;;14.10;9.88;;;25.20;57.70;;;;;;5095075;28;20377;-70
2021/08/15 00:23:09;;;;;;;13.20;9.60;;;25.20;57.70;;;;;;5094703;28;20382;-70
2021/08/15 00:25:35;;;;;;;11.18;8.48;;;25.20;57.90;;;;;;5094719;28;20103;-71
2021/08/15 00:28:01;;;;;;;11.02;8.95;;;25.10;57.90;;;;;;5094675;28;20058;-70
2021/08/15 00:30:27;;;;;;;14.77;9.40;;;25.10;57.90;;;;;;5076513;28;20112;-71
2021/08/15 00:32:53;;;;;;;10.13;8.00;;;25.10;57.90;;;;;;5076457;28;20021;-71
2021/08/15 00:35:19;;;;;;;13.48;8.75;;;25.00;58.00;;;;;;5094554;28;20024;-70
2021/08/15 00:37:45;;;;;;;10.85;8.68;;;25.00;58.00;;;;;;5094504;28;20020;-71
2021/08/15 00:40:11;;;;;;;17.23;10.75;;;25.00;58.50;;;;;;5094443;28;20123;-72
2021/08/15 00:42:37;;;;;;;14.05;11.50;;;25.00;58.60;;;;;;5094481;28;20020;-72
2021/08/15 00:45:03;;;;;;;17.98;11.32;;;25.00;58.60;;;;;;5094257;28;20039;-72
2021/08/15 00:47:30;;;;;;;14.95;10.27;;;24.90;58.50;;;;;;5076201;28;20020;-72
2021/08/15 00:49:58;;;;;;;12.93;8.80;;;24.90;58.50;;;;;;5094249;28;20016;-70
2021/08/15 00:52:24;;;;;;;11.10;7.63;;;24.90;58.70;;;;;;5093914;28;20024;-71
2021/08/15 00:54:50;;;;;;;11.75;7.55;;;24.90;58.50;;;;;;5093874;28;20047;-70
2021/08/15 00:57:15;;;;;;;11.65;7.80;;;24.90;58.70;;;;;;5075894;28;20428;-70
2021/08/15 00:59:42;;;;;;;16.25;10.45;;;24.80;58.60;;;;;;5093907;28;20028;-70
2021/08/15 01:02:08;;;;;;;11.98;8.30;;;24.80;59.10;;;;;;5075809;28;20035;-72
2021/08/15 01:04:37;;;;;;;9.57;7.47;;;24.80;59.30;;;;;;5093813;28;20028;-71
2021/08/15 01:07:04;;;;;;;14.25;8.77;;;24.80;59.20;;;;;;5075652;28;20362;-72
2021/08/15 01:09:31;;;;;;;13.52;8.50;;;24.70;59.10;;;;;;5093858;28;20078;-70
2021/08/15 01:11:58;;;;;;;9.23;7.53;;;24.70;59.10;;;;;;5093721;28;20023;-74
2021/08/15 01:14:24;;;;;;;12.00;7.80;;;24.70;59.40;;;;;;5075600;28;20110;-70
2021/08/15 01:16:49;;;;;;;16.88;12.15;;;24.70;59.40;;;;;;5093596;28;20042;-71
2021/08/15 01:19:15;;;;;;;16.73;12.23;;;24.70;59.30;;;;;;5075527;28;20069;-72
2021/08/15 01:21:46;;;;;;;15.60;10.23;;;24.70;59.50;;;;;;5092950;28;20032;-71
2021/08/15 01:24:14;;;;;;;10.85;8.73;;;24.70;59.70;;;;;;5093453;28;20047;-72
2021/08/15 01:26:43;;;;;;;14.00;8.65;;;24.60;59.40;;;;;;5093504;28;20090;-71
2021/08/15 01:29:08;;;;;;;16.63;11.20;;;24.60;59.70;;;;;;5093310;28;20031;-72
2021/08/15 01:31:34;;;;;;;17.08;9.43;;;24.60;59.70;;;;;;5093430;28;20020;-73
2021/08/15 01:34:00;;;;;;;13.18;8.57;;;24.50;59.50;;;;;;5093462;28;20160;-72
2021/08/15 01:36:26;;;;;;;10.90;8.00;;;24.50;59.60;;;;;;5075526;28;20071;-72
2021/08/15 01:38:52;;;;;;;12.82;8.23;;;24.50;59.60;;;;;;5093387;28;20107;-71
2021/08/15 01:41:18;;;;;;;10.30;7.90;;;24.50;59.70;;;;;;5093415;28;20027;-72
2021/08/15 01:44:02;;;;;;;13.30;10.35;;;24.50;59.70;;;;;;5093208;28;20062;-72
2021/08/15 01:46:30;;;;;;;31.30;24.53;;;24.50;60.20;;;;;;5093449;28;20020;-72
2021/08/15 01:48:58;;;;;;;36.50;26.92;;;24.50;60.00;;;;;;5093179;28;20493;-72
2021/08/15 01:51:24;;;;;;;22.98;17.35;;;24.50;59.80;;;;;;5075093;28;20028;-71
2021/08/15 01:53:55;;;;;;;19.83;10.73;;;24.50;60.00;;;;;;5092975;28;20473;-72
2021/08/15 01:56:22;;;;;;;16.50;11.52;;;24.40;60.40;;;;;;5093005;28;20056;-71
2021/08/15 01:58:48;;;;;;;13.95;10.50;;;24.40;60.50;;;;;;5093083;28;20474;-71
2021/08/15 02:01:18;;;;;;;12.10;9.32;;;24.40;60.30;;;;;;5093149;28;20073;-73
2021/08/15 02:03:45;;;;;;;14.52;11.00;;;24.40;60.40;;;;;;5092913;28;20492;-72
2021/08/15 02:06:11;;;;;;;13.27;8.15;;;24.40;60.30;;;;;;5093025;28;20107;-71
2021/08/15 02:08:36;;;;;;;10.02;8.23;;;24.40;60.40;;;;;;5093030;28;20044;-71
2021/08/15 02:11:02;;;;;;;14.18;8.13;;;24.40;60.50;;;;;;5092962;28;20052;-71
2021/08/15 02:13:28;;;;;;;11.70;8.25;;;24.40;60.40;;;;;;5092969;28;20032;-72
2021/08/15 02:15:54;;;;;;;9.88;7.32;;;24.40;60.60;;;;;;5092952;28;20362;-72
2021/08/15 02:18:20;;;;;;;11.07;6.82;;;24.40;60.50;;;;;;5092954;28;20046;-71
2021/08/15 02:20:45;;;;;;;9.70;7.30;;;24.40;60.40;;;;;;5092919;28;20440;-71
2021/08/15 02:23:12;;;;;;;10.48;7.80;;;24.30;60.30;;;;;;5092900;28;20028;-73
2021/08/15 02:25:38;;;;;;;10.23;7.95;;;24.40;60.50;;;;;;5092925;28;20385;-70
2021/08/15 02:28:05;;;;;;;10.60;8.50;;;24.30;60.60;;;;;;5092886;28;20020;-72
2021/08/15 02:30:31;;;;;;;11.00;8.23;;;24.30;60.60;;;;;;5092927;28;20047;-72
2021/08/15 02:32:58;;;;;;;17.17;10.20;;;24.30;60.60;;;;;;5094348;28;20035;-71
2021/08/15 02:35:25;;;;;;;16.73;12.13;;;24.30;60.90;;;;;;5096917;28;20121;-71
2021/08/15 02:37:52;;;;;;;14.05;9.38;;;24.30;61.30;;;;;;5096811;28;20107;-72
2021/08/15 02:40:20;;;;;;;9.85;7.30;;;24.30;61.30;;;;;;5096781;28;20028;-73
2021/08/15 02:42:49;;;;;;;17.85;13.65;;;24.20;61.40;;;;;;5096654;28;20020;-70
2021/08/15 02:45:17;;;;;;;40.35;28.77;;;24.20;61.60;;;;;;5096704;28;20532;-72
2021/08/15 02:47:43;;;;;;;30.40;22.33;;;24.20;61.40;;;;;;5078361;28;20385;-71
2021/08/15 02:50:10;;;;;;;20.63;14.93;;;24.20;61.10;;;;;;5096616;28;20027;-71
2021/08/15 02:52:36;;;;;;;12.90;9.27;;;24.10;61.30;;;;;;5096436;28;20381;-70
2021/08/15 02:55:03;;;;;;;14.68;11.93;;;24.10;61.20;;;;;;5096253;28;20556;-71
2021/08/15 02:57:29;;;;;;;15.43;10.98;;;24.10;61.50;;;;;;5096538;28;20031;-74
2021/08/15 02:59:55;;;;;;;14.55;10.23;;;24.10;61.30;;;;;;5096401;28;20028;-72
2021/08/15 03:02:21;;;;;;;13.85;9.48;;;24.10;61.40;;;;;;5096373;28;20035;-72
2021/08/15 03:04:48;;;;;;;18.40;11.45;;;24.10;61.40;;;;;;5096258;28;20016;-70
2021/08/15 03:07:15;;;;;;;14.48;11.68;;;24.10;61.70;;;;;;5096299;28;20031;-70
2021/08/15 03:09:42;;;;;;;15.35;10.77;;;24.00;61.80;;;;;;5096235;28;20107;-72
2021/08/15 03:12:08;;;;;;;15.80;11.25;;;24.00;61.60;;;;;;5096165;28;20070;-71
2021/08/15 03:14:34;;;;;;;13.50;10.80;;;24.00;61.70;;;;;;5096176;28;20095;-72
2021/08/15 03:17:00;;;;;;;15.13;11.18;;;24.00;61.70;;;;;;5096095;28;20105;-72
2021/08/15 03:19:26;;;;;;;18.20;10.40;;;24.00;61.80;;;;;;5095987;28;20028;-70
2021/08/15 03:21:51;;;;;;;14.00;10.70;;;24.00;61.80;;;;;;5095980;28;20024;-73
2021/08/15 03:24:17;;;;;;;22.15;9.23;;;23.90;61.80;;;;;;5095867;28;20019;-71
2021/08/15 03:26:44;;;;;;;13.77;9.18;;;23.90;61.90;;;;;;5096174;28;20075;-72
2021/08/15 03:29:15;;;;;;;11.30;9.23;;;23.90;62.00;;;;;;5095832;28;20020;-73
2021/08/15 03:31:41;;;;;;;14.75;9.07;;;23.90;62.10;;;;;;5095814;28;20027;-71
2021/08/15 03:34:07;;;;;;;17.27;10.00;;;23.90;62.00;;;;;;5095728;28;20081;-72
2021/08/15 03:36:34;;;;;;;18.60;12.05;;;23.90;62.20;;;;;;5095712;28;20105;-71
2021/08/15 03:38:59;;;;;;;15.25;10.32;;;23.90;62.30;;;;;;5095597;28;20020;-73
2021/08/15 03:41:25;;;;;;;16.10;10.77;;;23.90;62.30;;;;;;5077492;28;20038;-70
2021/08/15 03:43:51;;;;;;;20.15;11.57;;;23.90;62.30;;;;;;5095114;28;20111;-72
2021/08/15 03:46:17;;;;;;;16.95;10.27;;;23.90;62.20;;;;;;5095119;28;20024;-71
2021/08/15 03:48:43;;;;;;;21.25;11.40;;;23.80;62.30;;;;;;5095505;28;20474;-70
2021/08/15 03:51:09;;;;;;;24.40;11.02;;;23.90;62.40;;;;;;5095294;28;20016;-70
2021/08/15 03:53:35;;;;;;;14.77;10.27;;;23.80;62.20;;;;;;5095296;28;20025;-72
2021/08/15 03:56:01;;;;;;;13.68;9.82;;;23.80;62.40;;;;;;5077017;28;20055;-71
2021/08/15 03:58:28;;;;;;;13.30;9.10;;;23.80;62.40;;;;;;5095285;28;20469;-70
2021/08/15 04:00:54;;;;;;;15.70;9.27;;;23.80;62.40;;;;;;5077080;28;20031;-72
2021/08/15 04:03:20;;;;;;;15.77;10.15;;;23.80;62.50;;;;;;5095099;28;20023;-73
2021/08/15 04:05:46;;;;;;;16.98;10.80;;;23.80;62.90;;;;;;5077064;28;20031;-72
2021/08/15 04:08:12;;;;;;;20.92;11.93;;;23.80;63.00;;;;;;5095038;28;20477;-71
2021/08/15 04:10:38;;;;;;;20.60;10.30;;;23.70;63.20;;;;;;5076957;28;20074;-71
2021/08/15 04:13:04;;;;;;;13.93;10.90;;;23.80;63.20;;;;;;5094998;28;20035;-72
2021/08/15 04:15:31;;;;;;;21.23;10.18;;;23.80;63.10;;;;;;5094931;28;20094;-70
2021/08/15 04:17:56;;;;;;;18.48;10.52;;;23.80;63.50;;;;;;5076711;28;20401;-71
2021/08/15 04:20:22;;;;;;;12.98;9.35;;;23.80;63.50;;;;;;5094879;28;20027;-71
2021/08/15 04:22:49;;;;;;;16.92;9.60;;;23.80;63.40;;;;;;5094830;28;20051;-72
2021/08/15 04:25:15;;;;;;;13.88;9.40;;;23.80;63.50;;;;;;5094749;28;20028;-71
2021/08/15 04:27:41;;;;;;;13.30;9.32;;;23.80;63.70;;;;;;5094741;28;20381;-72
2021/08/15 04:30:09;;;;;;;13.20;8.50;;;23.90;63.50;;;;;;5094630;28;20016;-70
2021/08/15 04:32:35;;;;;;;12.10;8.30;;;23.90;63.40;;;;;;5076470;28;20538;-71
2021/08/15 04:35:00;;;;;;;16.23;10.35;;;23.90;63.50;;;;;;5094587;28;20043;-72
2021/08/15 04:37:27;;;;;;;13.15;9.48;;;23.90;63.50;;;;;;5094515;28;20024;-70
2021/08/15 04:39:53;;;;;;;12.75;8.55;;;24.00;63.50;;;;;;5094487;28;20381;-71
2021/08/15 04:42:19;;;;;;;11.80;8.57;;;24.00;63.50;;;;;;5094441;28;20020;-71
2021/08/15 04:44:45;;;;;;;15.65;9.25;;;24.00;63.40;;;;;;5094292;28;20031;-71
2021/08/15 04:47:11;;;;;;;13.00;8.65;;;24.00;63.50;;;;;;5094379;28;20020;-71
2021/08/15 04:49:37;;;;;;;15.35;8.93;;;24.10;63.50;;;;;;5076001;28;20020;-71
2021/08/15 04:52:04;;;;;;;9.10;7.70;;;24.10;63.40;;;;;;5076020;28;20481;-73
2021/08/15 04:54:30;;;;;;;13.10;8.48;;;24.20;63.50;;;;;;5094015;28;20127;-71
2021/08/15 04:56:58;;;;;;;15.70;10.05;;;24.20;63.50;;;;;;5093281;28;20058;-71
2021/08/15 04:59:24;;;;;;;15.68;9.05;;;24.20;63.50;;;;;;5075952;28;20024;-71
2021/08/15 05:01:50;;;;;;;13.60;8.68;;;24.40;63.60;;;;;;5094086;28;20051;-72
2021/08/15 05:04:16;;;;;;;11.70;8.23;;;24.40;63.50;;;;;;5093942;28;20052;-72
2021/08/15 05:06:42;;;;;;;11.07;8.23;;;24.50;63.50;;;;;;5094046;28;20067;-71
2021/08/15 05:09:08;;;;;;;13.82;9.38;;;24.60;63.50;;;;;;5075714;28;20367;-72
2021/08/15 05:11:34;;;;;;;13.63;9.05;;;24.70;63.30;;;;;;5093931;28;20078;-72
2021/08/15 05:14:00;;;;;;;15.32;9.70;;;24.80;62.90;;;;;;5093774;28;20034;-70
2021/08/15 05:16:26;;;;;;;17.15;9.52;;;24.90;62.80;;;;;;5093812;28;20027;-70
2021/08/15 05:18:52;;;;;;;14.90;9.30;;;25.00;62.70;;;;;;5093812;28;20431;-71
2021/08/15 05:21:17;;;;;;;18.00;9.25;;;25.20;62.60;;;;;;5093692;28;20042;-72
2021/08/15 05:23:43;;;;;;;19.30;10.27;;;25.30;62.30;;;;;;5093570;28;20493;-71
2021/08/15 05:26:09;;;;;;;13.85;9.35;;;25.50;62.00;;;;;;5093568;28;20106;-71
2021/08/15 05:28:35;;;;;;;19.02;10.60;;;25.70;61.40;;;;;;5075448;28;20027;-72
2021/08/15 05:31:01;;;;;;;29.83;11.27;;;25.90;60.40;;;;;;5093532;28;20035;-71
2021/08/15 05:33:27;;;;;;;27.42;12.40;;;26.00;59.40;;;;;;5093505;28;20051;-73
2021/08/15 05:35:52;;;;;;;14.52;10.05;;;26.00;59.20;;;;;;5093486;28;20162;-73
2021/08/15 05:38:18;;;;;;;15.27;9.13;;;26.10;59.40;;;;;;5093491;28;20028;-71
2021/08/15 05:40:44;;;;;;;13.27;8.80;;;26.10;59.30;;;;;;5093361;28;20031;-73
2021/08/15 05:43:10;;;;;;;18.35;10.73;;;26.20;59.90;;;;;;5075150;28;20038;-72
2021/08/15 05:45:37;;;;;;;13.80;9.88;;;26.10;59.10;;;;;;5093351;28;20095;-72
2021/08/15 05:48:04;;;;;;;15.80;9.25;;;26.10;59.00;;;;;;5093185;28;20034;-70
2021/08/15 05:50:30;;;;;;;12.80;8.43;;;26.10;59.00;;;;;;5093328;28;20449;-72
2021/08/15 05:52:56;;;;;;;14.02;9.18;;;26.00;59.10;;;;;;5093270;28;20027;-70
2021/08/15 05:55:22;;;;;;;13.77;8.70;;;26.00;59.20;;;;;;5060365;28;20064;-71
2021/08/15 05:57:48;;;;;;;12.98;8.85;;;26.00;59.40;;;;;;5052926;28;20029;-72
2021/08/15 06:00:14;;;;;;;13.20;9.80;;;25.90;59.50;;;;;;5052988;28;20020;-71
2021/08/15 06:02:41;;;;;;;14.85;10.38;;;25.90;59.60;;;;;;5051590;28;20020;-71
2021/08/15 06:05:09;;;;;;;15.50;10.23;;;25.90;59.70;;;;;;5052821;28;20025;-71
2021/08/15 06:07:34;;;;;;;16.70;10.68;;;26.00;59.80;;;;;;5054954;28;20052;-71
2021/08/15 06:10:00;;;;;;;15.23;10.73;;;26.00;59.90;;;;;;5059490;28;20061;-70
2021/08/15 06:12:26;;;;;;;15.23;10.18;;;26.10;60.00;;;;;;5059458;28;20064;-72
2021/08/15 06:14:52;;;;;;;17.77;9.88;;;26.20;60.20;;;;;;5059539;28;20036;-72
2021/08/15 06:17:17;;;;;;;18.25;10.20;;;26.30;60.10;;;;;;5058132;28;20494;-72
2021/08/15 06:19:43;;;;;;;17.13;11.02;;;26.50;60.00;;;;;;5059390;28;20021;-72
2021/08/15 06:22:09;;;;;;;20.20;11.23;;;26.60;59.50;;;;;;5059289;28;20024;-70
2021/08/15 06:24:36;;;;;;;16.65;10.80;;;26.70;59.20;;;;;;5059248;28;20048;-72
2021/08/15 06:27:03;;;;;;;18.77;11.60;;;26.90;59.00;;;;;;5059261;28;20025;-72
2021/08/15 06:29:29;;;;;;;15.55;10.40;;;27.00;58.50;;;;;;5059320;28;20021;-70
2021/08/15 06:31:55;;;;;;;20.17;9.82;;;27.00;58.30;;;;;;5057925;28;20028;-71
2021/08/15 06:34:20;;;;;;;14.70;9.95;;;27.10;58.20;;;;;;5059114;28;20021;-73
2021/08/15 06:36:46;;;;;;;16.30;10.70;;;27.20;58.40;;;;;;5059198;28;20052;-71
2021/08/15 06:39:12;;;;;;;18.90;9.70;;;27.20;58.10;;;;;;5059153;28;20487;-71
2021/08/15 06:41:38;;;;;;;15.23;10.68;;;27.20;58.00;;;;;;5059145;28;20024;-70
2021/08/15 06:44:05;;;;;;;21.27;11.60;;;27.30;57.90;;;;;;5057922;28;20082;-72
2021/08/15 06:46:30;;;;;;;17.02;11.73;;;27.40;57.60;;;;;;5059100;28;20482;-73
2021/08/15 06:48:56;;;;;;;16.25;9.73;;;27.40;57.40;;;;;;5059183;28;20032;-72
2021/08/15 06:51:22;;;;;;;15.50;9.63;;;27.40;57.40;;;;;;5059104;28;20021;-72
2021/08/15 06:53:48;;;;;;;19.27;11.18;;;27.40;57.40;;;;;;5059017;28;20103;-71
2021/08/15 06:56:14;;;;;;;16.05;10.35;;;27.50;57.30;;;;;;5095893;28;20378;-71
2021/08/15 06:58:40;;;;;;;19.10;10.68;;;27.50;57.20;;;;;;5081160;28;20081;-70
2021/08/15 07:01:05;;;;;;;15.07;10.45;;;27.50;57.20;;;;;;5099328;28;20034;-70
2021/08/15 07:03:31;;;;;;;25.23;11.93;;;27.60;57.00;;;;;;5099276;28;20103;-70
2021/08/15 07:05:58;;;;;;;16.42;11.00;;;27.60;56.70;;;;;;5099417;28;20028;-72
2021/08/15 07:08:24;;;;;;;18.15;11.20;;;27.60;56.90;;;;;;5099335;28;20095;-70
2021/08/15 07:10:50;;;;;;;16.52;11.20;;;27.70;56.70;;;;;;5099284;28;20051;-71
2021/08/15 07:13:19;;;;;;;18.23;10.73;;;27.70;56.70;;;;;;5099232;28;20103;-70
2021/08/15 07:15:46;;;;;;;17.92;10.82;;;27.70;56.60;;;;;;5081038;28;20130;-71
2021/08/15 07:18:12;;;;;;;23.23;11.05;;;27.80;56.70;;;;;;5099154;28;20099;-71
2021/08/15 07:20:38;;;;;;;19.98;9.50;;;27.80;56.40;;;;;;5094977;28;20054;-71
2021/08/15 07:23:04;;;;;;;17.90;11.00;;;27.90;56.50;;;;;;5095961;28;20028;-72
2021/08/15 07:25:30;;;;;;;16.27;10.23;;;27.90;56.20;;;;;;5077728;28;20047;-70
2021/08/15 07:28:01;;;;;;;21.88;10.70;;;28.00;56.30;;;;;;5095927;28;20145;-73
2021/08/15 07:30:29;;;;;;;17.67;10.68;;;28.10;56.20;;;;;;5095833;28;20065;-72
2021/08/15 07:33:04;;;;;;;19.73;11.63;;;28.10;55.90;;;;;;5095755;28;20016;-72
2021/08/15 07:35:31;;;;;;;16.70;11.10;;;28.20;55.70;;;;;;5077673;28;20020;-70
2021/08/15 07:37:57;;;;;;;15.65;9.93;;;28.20;55.60;;;;;;5095609;28;20122;-71
2021/08/15 07:40:24;;;;;;;13.35;9.75;;;28.30;55.60;;;;;;5077519;28;20020;-70
2021/08/15 07:42:51;;;;;;;17.52;10.52;;;28.30;55.60;;;;;;5095511;28;20492;-71
2021/08/15 07:45:18;;;;;;;24.48;11.30;;;28.40;55.60;;;;;;5095361;28;20020;-72
2021/08/15 07:47:44;;;;;;;23.27;10.88;;;28.40;55.40;;;;;;5077106;28;20107;-71
2021/08/15 07:50:10;;;;;;;20.20;10.93;;;28.50;55.30;;;;;;5095367;28;20124;-71
2021/08/15 07:52:36;;;;;;;14.43;9.15;;;28.50;55.10;;;;;;5095637;28;20525;-70
2021/08/15 07:55:03;;;;;;;18.17;9.70;;;28.50;55.10;;;;;;5095076;28;20051;-71
2021/08/15 07:57:30;;;;;;;14.55;10.65;;;28.60;54.80;;;;;;5077124;28;20028;-73
2021/08/15 07:59:57;;;;;;;19.13;11.07;;;28.60;54.90;;;;;;5095187;28;20020;-72
2021/08/15 08:02:23;;;;;;;15.10;10.23;;;28.70;54.90;;;;;;5095223;28;20115;-72
2021/08/15 08:04:50;;;;;;;21.08;11.10;;;28.80;54.90;;;;;;5095077;28;20107;-72
2021/08/15 08:07:19;;;;;;;16.13;10.80;;;28.80;54.80;;;;;;5095241;28;20364;-72
2021/08/15 08:09:46;;;;;;;20.80;12.35;;;28.80;54.60;;;;;;5095123;28;20046;-71
2021/08/15 08:12:12;;;;;;;17.60;11.68;;;28.90;54.50;;;;;;5095098;28;20031;-72
2021/08/15 08:14:38;;;;;;;17.95;11.70;;;28.90;54.60;;;;;;5095027;28;20020;-71
2021/08/15 08:17:04;;;;;;;17.05;10.98;;;29.00;54.90;;;;;;5076503;28;20077;-72
2021/08/15 08:19:30;;;;;;;16.13;10.43;;;29.00;54.60;;;;;;5076662;28;20532;-73
2021/08/15 08:21:56;;;;;;;19.58;11.18;;;29.00;54.30;;;;;;5094817;28;20020;-72
2021/08/15 08:24:21;;;;;;;18.15;10.18;;;29.10;54.20;;;;;;5094584;28;20028;-72
2021/08/15 08:26:47;;;;;;;21.08;11.35;;;29.10;54.40;;;;;;5076538;28;20465;-72
2021/08/15 08:29:13;;;;;;;21.60;11.35;;;29.20;54.00;;;;;;5094585;28;20423;-71
2021/08/15 08:31:39;;;;;;;15.55;10.43;;;29.20;54.00;;;;;;5094491;28;20025;-72
2021/08/15 08:34:05;;;;;;;16.45;9.98;;;29.30;53.90;;;;;;5094459;28;20024;-72
2021/08/15 08:36:30;;;;;;;22.92;11.05;;;29.40;53.90;;;;;;5094469;28;20027;-72
2021/08/15 08:38:56;;;;;;;20.25;11.02;;;29.40;53.60;;;;;;5094420;28;20367;-72
2021/08/15 08:41:22;;;;;;;18.05;10.48;;;29.50;53.30;;;;;;5094468;28;20016;-71
2021/08/15 08:43:48;;;;;;;22.80;11.65;;;29.50;53.10;;;;;;5075990;28;20107;-71
2021/08/15 08:46:20;;;;;;;22.60;12.43;;;29.60;52.90;;;;;;5094218;28;20426;-70
2021/08/15 08:48:45;;;;;;;24.10;11.25;;;29.60;52.70;;;;;;5094222;28;20040;-71
2021/08/15 08:51:11;;;;;;;18.85;10.93;;;29.60;52.70;;;;;;5094223;28;20054;-73
2021/08/15 08:53:38;;;;;;;17.23;10.35;;;29.70;52.60;;;;;;5094102;28;20042;-71
2021/08/15 08:56:04;;;;;;;18.35;11.60;;;29.80;52.60;;;;;;5075676;28;20101;-73
2021/08/15 08:58:30;;;;;;;20.33;12.25;;;29.80;52.30;;;;;;5094071;28;20028;-71
2021/08/15 09:00:56;;;;;;;18.70;12.38;;;29.90;51.90;;;;;;5093976;28;20034;-74
2021/08/15 09:03:22;;;;;;;15.43;10.10;;;30.00;51.70;;;;;;5093880;28;20068;-71
2021/08/15 09:05:55;;;;;;;21.23;11.57;;;30.00;51.90;;;;;;5075798;28;20103;-71
2021/08/15 09:08:34;;;;;;;14.57;9.10;;;30.10;51.70;;;;;;5093859;28;20113;-72
2021/08/15 09:11:19;;;;;;;17.38;11.00;;;30.10;52.00;;;;;;5075824;28;20678;-73
2021/08/15 09:14:00;;;;;;;21.35;10.77;;;30.20;51.90;;;;;;5093864;28;20019;-73
2021/08/15 09:16:25;;;;;;;17.42;10.43;;;30.30;51.40;;;;;;5093790;28;20024;-71
2021/08/15 09:18:51;;;;;;;18.10;9.68;;;30.30;51.50;;;;;;5093672;28;20076;-72
2021/08/15 09:21:29;;;;;;;15.48;9.52;;;30.40;51.50;;;;;;5093650;28;20043;-72
2021/08/15 09:24:01;;;;;;;15.07;9.93;;;30.50;51.80;;;;;;5093533;28;20020;-74
2021/08/15 09:26:27;;;;;;;17.60;10.60;;;30.60;51.40;;;;;;5093574;28;20034;-72
2021/08/15 09:28:53;;;;;;;16.63;10.40;;;30.70;51.20;;;;;;5093695;28;20578;-72
2021/08/15 09:31:25;;;;;;;14.70;9.05;;;30.80;51.20;;;;;;5093346;28;20016;-72
2021/08/15 09:33:56;;;;;;;16.88;9.95;;;30.80;51.00;;;;;;5075166;28;20032;-72
2021/08/15 09:36:25;;;;;;;21.75;11.15;;;30.90;50.90;;;;;;5093506;28;20032;-72
2021/08/15 09:38:59;;;;;;;20.10;10.85;;;30.90;50.10;;;;;;5075196;28;20020;-72
2021/08/15 09:41:27;;;;;;;20.52;10.57;;;31.00;50.20;;;;;;5093391;28;20043;-72
2021/08/15 09:44:22;;;;;;;21.10;11.25;;;31.10;50.20;;;;;;5092532;28;20065;-70
2021/08/15 09:46:56;;;;;;;18.48;9.65;;;31.10;50.20;;;;;;5075171;28;20483;-70
2021/08/15 09:49:21;;;;;;;;;;;31.20;50.30;;;;;;5093635;28;20054;-71
2021/08/15 09:51:47;;;;;;;16.80;10.45;;;31.20;51.40;;;;;;5093217;28;19908;-72
2021/08/15 09:54:17;;;;;;;20.70;11.13;;;31.30;50.20;;;;;;5093040;28;20032;-73
2021/08/15 09:56:43;;;;;;;16.05;11.65;;;31.30;49.90;;;;;;5093109;28;20505;-71
2021/08/15 09:59:13;;;;;;;12.82;10.02;;;31.40;49.80;;;;;;5093305;28;20089;-73
2021/08/15 10:01:44;;;;;;;16.15;9.90;;;31.50;49.90;;;;;;5093171;28;20031;-73
2021/08/15 10:04:11;;;;;;;19.38;10.55;;;31.50;49.90;;;;;;5093036;28;20044;-72
2021/08/15 10:06:41;;;;;;;15.20;10.25;;;31.60;50.10;;;;;;5093028;28;20020;-72
2021/08/15 10:09:07;;;;;;;19.88;11.65;;;31.60;49.80;;;;;;5093093;28;20025;-72
2021/08/15 10:11:34;;;;;;;23.98;10.82;;;31.70;49.40;;;;;;5092981;28;20481;-73
2021/08/15 10:14:00;;;;;;;16.33;10.10;;;31.70;49.50;;;;;;5092939;28;20443;-72
2021/08/15 10:17:10;;;;;;;15.65;10.40;;;31.80;49.50;;;;;;5074817;28;20047;-72
2021/08/15 10:19:42;;;;;;;21.70;10.63;;;31.90;49.50;;;;;;5092951;28;20477;-73
2021/08/15 10:22:09;;;;;;;21.05;12.20;;;32.00;49.30;;;;;;5092842;28;20089;-74
2021/08/15 10:24:53;;;;;;;17.40;11.18;;;32.00;48.60;;;;;;5092686;28;20020;-72
2021/08/15 10:27:40;;;;;;;17.75;11.00;;;32.10;48.90;;;;;;5092925;28;20020;-71
2021/08/15 10:30:21;;;;;;;17.77;10.70;;;32.20;48.80;;;;;;5074664;28;20028;-73
2021/08/15 10:32:55;;;;;;;16.23;10.13;;;32.30;48.50;;;;;;5092652;28;20016;-73
2021/08/15 10:35:32;;;;;;;19.45;11.15;;;32.30;48.20;;;;;;5074575;28;20092;-73
2021/08/15 10:37:59;;;;;;;19.55;11.32;;;32.40;47.70;;;;;;5092684;28;20388;-73
2021/08/15 10:40:40;;;;;;;19.88;11.20;;;32.40;47.60;;;;;;5092570;28;20024;-73
2021/08/15 10:43:08;;;;;;;17.85;8.93;;;32.50;47.50;;;;;;5092586;28;20085;-71
2021/08/15 10:45:34;;;;;;;19.75;11.57;;;32.60;46.60;;;;;;5074372;28;20362;-73
2021/08/15 10:48:09;;;;;;;24.10;12.70;;;32.60;46.90;;;;;;5092589;28;20016;-71
2021/08/15 10:50:46;;;;;;;19.45;11.73;;;32.60;46.60;;;;;;5092661;28;20024;-72
2021/08/15 10:53:28;;;;;;;16.25;9.23;;;32.70;46.50;;;;;;5092534;28;20089;-73
2021/08/15 10:56:08;;;;;;;23.05;10.23;;;32.70;46.40;;;;;;5095310;28;20040;-73
2021/08/15 10:58:39;;;;;;;21.63;11.10;;;32.80;45.40;;;;;;5096430;28;20063;-72
2021/08/15 11:01:09;;;;;;;17.67;9.68;;;32.80;44.50;;;;;;5096406;28;20043;-71
2021/08/15 11:03:50;;;;;;;19.20;9.88;;;32.90;44.90;;;;;;5096205;28;20046;-72
2021/08/15 11:06:34;;;;;;;23.45;9.68;;;32.90;44.90;;;;;;5096318;28;20021;-72
2021/08/15 11:09:06;;;;;;;17.38;8.57;;;33.00;45.00;;;;;;5096196;28;20028;-73
2021/08/15 11:11:37;;;;;;;18.90;9.38;;;33.00;45.00;;;;;;5096115;28;20020;-73
2021/08/15 11:14:20;;;;;;;28.80;9.35;;;33.10;44.50;;;;;;5096091;28;20496;-73
2021/08/15 11:17:08;;;;;;;14.73;7.93;;;33.10;43.90;;;;;;5077875;28;20039;-71
2021/08/15 11:19:34;;;;;;;17.10;8.18;;;33.20;44.00;;;;;;5077756;28;20032;-72
2021/08/15 11:22:16;;;;;;;19.42;7.78;;;33.20;44.20;;;;;;5095951;28;20024;-71
2021/08/15 11:24:45;;;;;;;11.15;7.15;;;33.20;44.10;;;;;;5095813;28;20028;-72
2021/08/15 11:27:15;;;;;;;14.40;8.43;;;33.30;44.10;;;;;;5095877;28;20032;-73
2021/08/15 11:29:43;;;;;;;16.73;8.15;;;33.40;43.20;;;;;;5077669;28;20024;-71
2021/08/15 11:32:27;;;;;;;12.82;6.93;;;33.40;42.80;;;;;;5095649;28;20480;-71
2021/08/15 11:35:01;;;;;;;12.82;8.20;;;33.40;42.50;;;;;;5095803;28;20028;-72
2021/08/15 11:37:36;;;;;;;14.02;7.22;;;33.50;42.80;;;;;;5095517;28;20059;-72
2021/08/15 11:40:14;;;;;;;11.52;6.85;;;33.50;42.30;;;;;;5095490;28;20028;-74
2021/08/15 11:42:40;;;;;;;17.83;7.70;;;33.60;42.40;;;;;;5095479;28;20101;-72
2021/08/15 11:45:06;;;;;;;9.63;7.10;;;33.60;42.00;;;;;;5095190;28;20481;-73
2021/08/15 11:47:35;;;;;;;15.05;6.90;;;33.60;42.00;;;;;;5095408;28;20016;-72
2021/08/15 11:50:15;;;;;;;17.52;8.25;;;33.60;41.60;;;;;;5095296;28;20028;-72
2021/08/15 11:52:41;;;;;;;15.90;7.75;;;33.70;41.80;;;;;;5095313;28;20024;-74
2021/08/15 11:55:19;;;;;;;16.25;7.70;;;33.70;42.10;;;;;;5095066;28;20497;-71
2021/08/15 11:57:50;;;;;;;15.27;7.85;;;33.70;41.80;;;;;;5077722;28;20136;-72
2021/08/15 12:00:23;;;;;;;16.00;7.85;;;33.70;41.70;;;;;;5095199;28;20028;-71
2021/08/15 12:03:09;;;;;;;16.60;8.38;;;33.80;41.30;;;;;;5095168;28;20082;-73
2021/08/15 12:05:47;;;;;;;13.43;7.18;;;33.80;41.90;;;;;;5094542;28;20390;-73
2021/08/15 12:08:15;;;;;;;14.88;7.95;;;33.90;41.80;;;;;;5076827;28;20366;-73
2021/08/15 12:10:43;;;;;;;17.08;7.75;;;33.90;41.40;;;;;;5094960;28;20097;-73
2021/08/15 12:13:08;;;;;;;20.17;7.90;;;33.90;42.00;;;;;;5094962;28;20027;-70
2021/08/15 12:15:38;;;;;;;14.45;7.30;;;34.00;42.10;;;;;;5094948;28;20021;-72
2021/08/15 12:18:04;;;;;;;21.77;7.25;;;34.00;40.90;;;;;;5094779;28;20051;-74
2021/08/15 12:20:31;;;;;;;16.35;7.78;;;34.00;41.20;;;;;;5094766;28;20027;-71
2021/08/15 12:23:06;;;;;;;19.70;6.97;;;34.10;41.30;;;;;;5094811;28;20024;-73
2021/08/15 12:25:32;;;;;;;22.33;11.80;;;34.10;41.40;;;;;;5076427;28;20055;-73
2021/08/15 12:28:12;;;;;;;16.33;7.72;;;34.20;41.00;;;;;;5076436;28;20492;-72
2021/08/15 12:30:39;;;;;;;14.00;6.85;;;34.20;40.90;;;;;;5094657;28;20149;-73
2021/08/15 12:33:25;;;;;;;10.48;6.38;;;34.20;40.70;;;;;;5094510;28;20024;-73
2021/08/15 12:35:51;;;;;;;9.90;6.28;;;34.20;41.00;;;;;;5094499;28;20020;-73
2021/08/15 12:38:28;;;;;;;12.60;7.18;;;34.30;40.60;;;;;;5076556;28;20022;-72